createdAt,value
2017-12-05T00:00:50.799Z,2
2017-12-05T00:01:53.073Z,1.9
2017-12-05T00:02:58.269Z,1.9
2017-12-05T00:04:00.982Z,2
2017-12-05T00:05:02.355Z,2.4
2017-12-05T00:06:03.787Z,2
2017-12-05T00:07:05.262Z,2
2017-12-05T00:08:06.647Z,2.1
2017-12-05T00:09:08.068Z,2.1
2017-12-05T00:10:09.502Z,2.1
2017-12-05T00:11:10.846Z,2.1
2017-12-05T00:12:12.213Z,2.1
2017-12-05T00:13:15.053Z,2.4
2017-12-05T00:14:16.466Z,2
2017-12-05T00:15:18.475Z,2
2017-12-05T00:16:19.782Z,2.1
2017-12-05T00:17:21.801Z,2.1
2017-12-05T00:18:22.930Z,2.1
2017-12-05T00:19:24.869Z,2.1
2017-12-05T00:20:26.205Z,2.1
2017-12-05T00:21:27.670Z,2.1
2017-12-05T00:22:29.075Z,2
2017-12-05T00:23:32.220Z,2.1
2017-12-05T00:24:33.504Z,2
2017-12-05T00:25:34.609Z,2
2017-12-05T00:26:35.970Z,2
2017-12-05T00:27:37.531Z,2.1
2017-12-05T00:28:39.643Z,2.1
2017-12-05T00:29:41.041Z,2.1
2017-12-05T00:30:42.422Z,2.1
2017-12-05T00:31:43.810Z,2.2
2017-12-05T00:32:46.131Z,2.2
2017-12-05T00:33:49.386Z,2.1
2017-12-05T00:34:50.793Z,2.1
2017-12-05T00:35:52.191Z,2.1
2017-12-05T00:57:23.271Z,1.5
2017-12-05T00:58:25.255Z,1.6
2017-12-05T00:59:27.135Z,1.6
2017-12-05T01:00:28.486Z,1.6
2017-12-05T01:01:30.297Z,1.7
2017-12-05T01:02:31.591Z,1.6
2017-12-05T01:03:32.994Z,1.6
2017-12-05T01:04:34.334Z,1.7
2017-12-05T01:05:38.969Z,1.7
2017-12-05T01:06:42.051Z,1.7
2017-12-05T01:07:44.028Z,1.8
2017-12-05T01:08:46.617Z,1.8
2017-12-05T01:09:49.579Z,1.8
2017-12-05T01:10:51.979Z,1.8
2017-12-05T01:11:53.454Z,1.8
2017-12-05T01:12:56.678Z,1.9
2017-12-05T01:13:58.105Z,1.7
2017-12-05T01:14:59.525Z,1.8
2017-12-05T01:16:02.663Z,1.8
2017-12-05T01:17:06.466Z,1.8
2017-12-05T01:18:07.868Z,1.8
2017-12-05T01:19:09.045Z,1.9
2017-12-05T01:20:13.304Z,1.9
2017-12-05T01:21:15.466Z,1.9
2017-12-05T01:22:17.329Z,2
2017-12-05T01:23:20.636Z,1.9
2017-12-05T01:24:23.183Z,1.9
2017-12-05T01:25:25.760Z,1.9
2017-12-05T01:26:29.017Z,1.9
2017-12-05T01:27:30.309Z,1.9
2017-12-05T01:28:31.581Z,1.9
2017-12-05T01:29:32.724Z,1.9
2017-12-05T01:30:34.684Z,2
2017-12-05T01:31:36.056Z,2
2017-12-05T01:32:39.479Z,2
2017-12-05T01:33:41.616Z,2
2017-12-05T01:34:43.694Z,2
2017-12-05T01:35:46.553Z,2
2017-12-05T01:37:01.227Z,2
2017-12-05T01:38:04.765Z,2
2017-12-05T01:39:06.133Z,2
2017-12-05T01:40:07.460Z,2
2017-12-05T01:41:08.750Z,2.1
2017-12-05T01:42:13.237Z,2.1
2017-12-05T01:43:18.263Z,2.1
2017-12-05T01:44:19.577Z,2.1
2017-12-05T01:45:22.224Z,2.1
2017-12-05T01:46:24.199Z,2.1
2017-12-05T01:47:29.065Z,2.1
2017-12-05T01:48:31.794Z,2.1
2017-12-05T01:49:35.204Z,2.3
2017-12-05T01:50:36.586Z,2.1
2017-12-05T01:51:39.295Z,2.1
2017-12-05T01:52:40.695Z,2.1
2017-12-05T01:53:42.872Z,2.1
2017-12-05T01:54:45.634Z,2.2
2017-12-05T01:55:48.480Z,2.1
2017-12-05T01:56:50.765Z,1.9
2017-12-05T01:57:53.521Z,2.1
2017-12-05T01:58:56.693Z,2.2
2017-12-05T01:59:59.367Z,2.1
2017-12-05T02:01:01.306Z,2.1
2017-12-05T02:02:03.257Z,2.1
2017-12-05T02:03:04.378Z,2.2
2017-12-05T02:04:06.878Z,2.2
2017-12-05T02:05:08.727Z,2.2
2017-12-05T02:06:11.288Z,2.2
2017-12-05T02:07:13.398Z,2.2
2017-12-05T02:08:16.660Z,2.2
2017-12-05T02:09:18.504Z,2.2
2017-12-05T02:10:20.438Z,2.2
2017-12-05T02:11:21.476Z,2.2
2017-12-05T02:12:23.515Z,2.2
2017-12-05T02:13:24.855Z,2
2017-12-05T02:14:26.337Z,2.5
2017-12-05T02:15:27.786Z,2.7
2017-12-05T02:16:29.194Z,2.2
2017-12-05T02:17:30.518Z,2.2
2017-12-05T02:18:33.777Z,2.2
2017-12-05T02:19:36.791Z,2.2
2017-12-05T02:20:38.140Z,2.2
2017-12-05T02:21:39.557Z,2.2
2017-12-05T02:22:42.306Z,2.2
2017-12-05T02:23:43.559Z,2.3
2017-12-05T02:24:45.646Z,2.2
2017-12-05T02:25:47.690Z,2.2
2017-12-05T02:26:51.890Z,2.2
2017-12-05T02:27:53.287Z,1.7
2017-12-05T02:28:55.973Z,2.2
2017-12-05T02:29:57.193Z,2.2
2017-12-05T02:30:58.361Z,2.3
2017-12-05T02:32:00.276Z,2.2
2017-12-05T02:33:01.619Z,2.3
2017-12-05T02:34:02.913Z,2.3
2017-12-05T02:35:04.510Z,2.3
2017-12-05T02:36:05.837Z,2.3
2017-12-05T02:37:07.926Z,2.3
2017-12-05T02:38:09.264Z,2.3
2017-12-05T02:39:12.553Z,2.3
2017-12-05T02:40:14.116Z,2.3
2017-12-05T02:41:16.114Z,2.3
2017-12-05T02:42:17.478Z,2.3
2017-12-05T02:43:18.910Z,2.3
2017-12-05T02:44:20.248Z,2.3
2017-12-05T02:45:21.934Z,2.3
2017-12-05T02:46:23.925Z,2.2
2017-12-05T02:47:26.308Z,2.2
2017-12-05T02:48:27.752Z,2.2
2017-12-05T02:49:31.863Z,2.2
2017-12-05T02:50:33.562Z,2.2
2017-12-05T02:51:34.981Z,2.2
2017-12-05T02:52:37.456Z,2.2
2017-12-05T02:53:39.938Z,2.2
2017-12-05T02:54:41.745Z,2.7
2017-12-05T02:55:43.187Z,2.3
2017-12-05T02:56:44.490Z,2.5
2017-12-05T02:57:46.504Z,2.3
2017-12-05T02:58:47.847Z,2.3
2017-12-05T02:59:52.258Z,2.3
2017-12-05T03:00:53.615Z,2.3
2017-12-05T03:01:55.087Z,2.4
2017-12-05T03:02:57.260Z,2.3
2017-12-05T03:03:59.174Z,2.3
2017-12-05T03:05:00.430Z,2.3
2017-12-05T03:06:01.813Z,2.3
2017-12-05T03:07:03.249Z,2.8
2017-12-05T03:08:05.148Z,2.3
2017-12-05T03:09:06.492Z,2.3
2017-12-05T03:10:10.388Z,2.3
2017-12-05T03:11:12.028Z,2.3
2017-12-05T03:12:14.006Z,2.2
2017-12-05T03:13:15.953Z,2.3
2017-12-05T03:14:18.646Z,2.2
2017-12-05T03:15:20.642Z,2.2
2017-12-05T03:16:21.978Z,2.3
2017-12-05T03:17:23.346Z,2.3
2017-12-05T03:18:26.215Z,2.3
2017-12-05T03:19:28.045Z,2.3
2017-12-05T03:20:31.434Z,2.3
2017-12-05T03:21:32.742Z,2.3
2017-12-05T03:22:35.768Z,2.3
2017-12-05T03:23:38.028Z,2.3
2017-12-05T03:24:40.763Z,2.3
2017-12-05T03:25:42.754Z,2.3
2017-12-05T03:26:46.179Z,2.3
2017-12-05T03:27:48.078Z,2.3
2017-12-05T03:28:49.391Z,2.2
2017-12-05T03:29:51.339Z,2.2
2017-12-05T03:30:54.932Z,2.2
2017-12-05T03:31:56.843Z,2.3
2017-12-05T03:32:58.162Z,2.2
2017-12-05T03:34:01.474Z,2.3
2017-12-05T03:35:03.532Z,2.3
2017-12-05T03:36:05.322Z,2.3
2017-12-05T03:37:07.676Z,2.3
2017-12-05T03:38:09.607Z,2.6
2017-12-05T03:39:13.251Z,2.3
2017-12-05T03:40:15.947Z,2.3
2017-12-05T03:41:20.716Z,2.3
2017-12-05T03:42:22.082Z,2.3
2017-12-05T03:43:23.425Z,2.3
2017-12-05T03:44:25.327Z,2.3
2017-12-05T03:45:29.443Z,2.3
2017-12-05T03:46:31.479Z,2.3
2017-12-05T03:47:33.964Z,2.3
2017-12-05T03:48:37.282Z,2.3
2017-12-05T03:49:39.485Z,2.3
2017-12-05T03:50:40.905Z,2.3
2017-12-05T03:51:44.810Z,2.3
2017-12-05T03:52:46.974Z,2.3
2017-12-05T03:53:48.292Z,2.3
2017-12-05T03:54:49.553Z,2.3
2017-12-05T03:55:52.048Z,2.3
2017-12-05T03:56:54.468Z,2.3
2017-12-05T03:57:56.703Z,2.3
2017-12-05T03:58:57.982Z,2.3
2017-12-05T04:00:00.581Z,2.3
2017-12-05T04:01:02.587Z,2.3
2017-12-05T04:02:06.412Z,2.3
2017-12-05T04:03:07.769Z,2.3
2017-12-05T04:04:09.946Z,2.3
2017-12-05T04:05:11.236Z,2.3
2017-12-05T04:06:12.489Z,2.3
2017-12-05T04:07:14.557Z,2.3
2017-12-05T04:08:18.044Z,2.3
2017-12-05T04:09:21.489Z,2.3
2017-12-05T04:10:23.919Z,2.3
2017-12-05T04:11:26.587Z,2.3
2017-12-05T04:12:29.235Z,2.3
2017-12-05T04:13:32.053Z,2.3
2017-12-05T04:14:33.336Z,2.3
2017-12-05T04:15:34.707Z,2.3
2017-12-05T04:16:35.981Z,2.3
2017-12-05T04:17:38.008Z,2.3
2017-12-05T04:18:39.746Z,2.3
2017-12-05T04:19:41.056Z,2.3
2017-12-05T04:20:52.372Z,2.3
2017-12-05T04:21:53.766Z,2.4
2017-12-05T04:22:59.884Z,2.4
2017-12-05T04:24:01.972Z,2.4
2017-12-05T04:25:03.275Z,2.4
2017-12-05T04:26:04.581Z,2.4
2017-12-05T04:27:05.951Z,2.4
2017-12-05T04:28:07.256Z,2.4
2017-12-05T04:29:08.832Z,2.4
2017-12-05T04:30:10.889Z,2.4
2017-12-05T04:31:12.275Z,2.4
2017-12-05T04:32:13.567Z,2.4
2017-12-05T04:33:16.347Z,2.4
2017-12-05T04:34:17.990Z,2.4
2017-12-05T04:35:19.408Z,2.4
2017-12-05T04:36:21.397Z,2.4
2017-12-05T04:37:22.677Z,2.4
2017-12-05T04:38:24.070Z,2.4
2017-12-05T04:39:25.768Z,2.4
2017-12-05T04:40:27.166Z,2.4
2017-12-05T04:41:28.478Z,2.4
2017-12-05T04:42:29.842Z,2.4
2017-12-05T04:43:32.514Z,2.4
2017-12-05T04:44:33.938Z,2.4
2017-12-05T04:45:35.203Z,2.5
2017-12-05T04:46:36.542Z,2.4
2017-12-05T04:47:37.930Z,2.4
2017-12-05T04:48:39.251Z,2.4
2017-12-05T04:49:41.330Z,2.4
2017-12-05T04:50:42.694Z,2.4
2017-12-05T04:51:44.016Z,2.4
2017-12-05T04:52:45.284Z,2.4
2017-12-05T04:53:48.071Z,2.4
2017-12-05T04:54:49.668Z,2.4
2017-12-05T04:55:51.068Z,2.4
2017-12-05T04:56:52.355Z,1.9
2017-12-05T04:57:53.762Z,2.4
2017-12-05T04:58:55.767Z,2.4
2017-12-05T04:59:57.080Z,2.4
2017-12-05T05:00:58.281Z,2.4
2017-12-05T05:01:59.528Z,2.4
2017-12-05T05:03:00.872Z,2.4
2017-12-05T05:04:03.458Z,2.4
2017-12-05T05:05:05.142Z,2.4
2017-12-05T05:06:07.212Z,2.4
2017-12-05T05:07:09.126Z,2.4
2017-12-05T05:08:10.467Z,2.4
2017-12-05T05:09:11.768Z,2.4
2017-12-05T05:10:14.026Z,2.8
2017-12-05T05:11:15.407Z,2.4
2017-12-05T05:12:16.788Z,2.4
2017-12-05T05:13:18.771Z,2.4
2017-12-05T05:14:21.535Z,2.6
2017-12-05T05:15:23.109Z,2.4
2017-12-05T05:16:24.439Z,2.4
2017-12-05T05:17:25.844Z,2.4
2017-12-05T05:18:27.132Z,2.4
2017-12-05T05:19:28.508Z,2.4
2017-12-05T05:20:29.829Z,2.4
2017-12-05T05:21:31.143Z,2.4
2017-12-05T05:22:32.554Z,2.4
2017-12-05T05:23:34.667Z,2.4
2017-12-05T05:24:37.252Z,2.4
2017-12-05T05:25:38.869Z,2.4
2017-12-05T05:26:40.235Z,2.4
2017-12-05T05:27:41.494Z,2.4
2017-12-05T05:28:42.764Z,2.4
2017-12-05T05:29:43.969Z,2.3
2017-12-05T05:30:45.638Z,1.8
2017-12-05T05:31:46.921Z,2.3
2017-12-05T05:32:48.226Z,2.4
2017-12-05T05:33:49.577Z,2.4
2017-12-05T05:34:52.271Z,2.3
2017-12-05T05:35:54.008Z,2.3
2017-12-05T05:36:55.327Z,2.3
2017-12-05T05:37:56.664Z,2.3
2017-12-05T05:39:00.014Z,2.3
2017-12-05T05:40:01.368Z,2.3
2017-12-05T05:41:03.041Z,2.3
2017-12-05T05:42:04.437Z,2.3
2017-12-05T05:43:05.728Z,2.4
2017-12-05T05:44:07.038Z,1.9
2017-12-05T05:45:09.741Z,2.4
2017-12-05T05:46:13.293Z,2.4
2017-12-05T05:47:14.543Z,2.3
2017-12-05T05:48:15.944Z,2.3
2017-12-05T05:49:17.265Z,2.4
2017-12-05T05:50:18.560Z,2.4
2017-12-05T05:51:19.817Z,2.4
2017-12-05T05:52:21.150Z,2.5
2017-12-05T05:53:22.447Z,2.3
2017-12-05T05:54:23.754Z,2.3
2017-12-05T05:55:27.165Z,2.4
2017-12-05T05:56:28.463Z,2.3
2017-12-05T05:57:29.778Z,2.4
2017-12-05T05:58:31.049Z,2.4
2017-12-05T05:59:32.398Z,2.4
2017-12-05T06:00:33.783Z,2.4
2017-12-05T06:01:35.110Z,2.4
2017-12-05T06:02:36.373Z,2.5
2017-12-05T06:03:37.745Z,2.8
2017-12-05T06:04:39.153Z,2.3
2017-12-05T06:05:41.823Z,2.8
2017-12-05T06:06:43.228Z,2.3
2017-12-05T06:07:44.524Z,2.3
2017-12-05T06:08:45.923Z,2.6
2017-12-05T06:09:47.334Z,2.4
2017-12-05T06:10:48.592Z,2.4
2017-12-05T06:11:49.869Z,2.4
2017-12-05T06:12:51.176Z,2.4
2017-12-05T06:13:52.695Z,2.3
2017-12-05T06:14:54.100Z,2.3
2017-12-05T06:15:56.869Z,2.3
2017-12-05T06:16:58.353Z,2.3
2017-12-05T06:17:59.670Z,2.8
2017-12-05T06:19:00.975Z,2.3
2017-12-05T06:20:02.275Z,2.3
2017-12-05T06:21:03.556Z,2.3
2017-12-05T06:22:04.899Z,2.3
2017-12-05T06:23:06.200Z,2.6
2017-12-05T06:24:07.497Z,2.3
2017-12-05T06:25:08.837Z,2.3
2017-12-05T06:26:11.487Z,2.3
2017-12-05T06:27:12.798Z,2.3
2017-12-05T06:28:14.112Z,2.3
2017-12-05T06:29:15.472Z,2.4
2017-12-05T06:30:17.560Z,2.4
2017-12-05T06:31:18.971Z,2.4
2017-12-05T06:32:20.355Z,2.4
2017-12-05T06:33:21.659Z,2.4
2017-12-05T06:34:22.961Z,2.7
2017-12-05T06:35:24.271Z,2.4
2017-12-05T06:36:27.029Z,2.4
2017-12-05T06:37:28.625Z,2.4
2017-12-05T06:38:29.908Z,2.4
2017-12-05T06:39:31.174Z,2.4
2017-12-05T06:40:32.452Z,2.4
2017-12-05T06:41:33.793Z,2.3
2017-12-05T06:42:35.379Z,2.4
2017-12-05T06:43:36.725Z,2.4
2017-12-05T06:44:38.012Z,2.3
2017-12-05T06:45:39.377Z,2.3
2017-12-05T06:46:42.105Z,2.3
2017-12-05T06:47:45.659Z,2.3
2017-12-05T06:48:46.988Z,2.3
2017-12-05T06:49:48.329Z,2.4
2017-12-05T06:50:49.653Z,2.4
2017-12-05T06:51:51.044Z,2.4
2017-12-05T06:52:52.404Z,2.4
2017-12-05T06:53:53.733Z,2.4
2017-12-05T06:54:55.109Z,2.4
2017-12-05T06:55:56.509Z,2.4
2017-12-05T06:56:59.245Z,2.4
2017-12-05T06:58:00.727Z,2.4
2017-12-05T06:59:02.101Z,2.4
2017-12-05T07:00:03.325Z,2.4
2017-12-05T07:01:04.661Z,2.4
2017-12-05T07:02:05.872Z,2.4
2017-12-05T07:03:07.166Z,2.4
2017-12-05T07:04:08.221Z,2.3
2017-12-05T07:05:09.657Z,2.4
2017-12-05T07:06:11.062Z,2.4
2017-12-05T07:07:13.699Z,2.8
2017-12-05T07:08:17.482Z,2.4
2017-12-05T07:09:19.662Z,2.4
2017-12-05T07:10:21.105Z,2.3
2017-12-05T07:11:22.547Z,2.4
2017-12-05T07:12:23.935Z,2.4
2017-12-05T07:13:25.562Z,2.3
2017-12-05T07:14:26.914Z,2.4
2017-12-05T07:15:28.265Z,2.4
2017-12-05T07:16:30.264Z,2.3
2017-12-05T07:17:33.040Z,2.4
2017-12-05T07:18:34.230Z,2.4
2017-12-05T07:19:35.566Z,2.8
2017-12-05T07:20:36.922Z,2.4
2017-12-05T07:21:38.265Z,2.5
2017-12-05T07:22:39.515Z,2.3
2017-12-05T07:23:40.852Z,2.3
2017-12-05T07:24:42.173Z,2.3
2017-12-05T07:25:43.471Z,2.3
2017-12-05T07:26:44.775Z,2.4
2017-12-05T07:27:47.478Z,2.4
2017-12-05T07:28:48.994Z,2.4
2017-12-05T07:29:50.351Z,2.7
2017-12-05T07:30:51.699Z,2.3
2017-12-05T07:31:53.078Z,2.4
2017-12-05T07:32:54.416Z,2.3
2017-12-05T07:33:55.787Z,2.4
2017-12-05T07:34:57.098Z,2.7
2017-12-05T07:35:58.481Z,2.4
2017-12-05T07:36:59.900Z,2.4
2017-12-05T07:38:02.754Z,2.4
2017-12-05T07:39:04.130Z,2.4
2017-12-05T07:40:05.454Z,2.6
2017-12-05T07:41:06.860Z,2.4
2017-12-05T07:42:08.149Z,2.4
2017-12-05T07:43:09.497Z,2.4
2017-12-05T07:44:10.932Z,2.5
2017-12-05T07:45:12.224Z,2.4
2017-12-05T07:46:13.563Z,2.4
2017-12-05T07:47:14.924Z,2.3
2017-12-05T07:48:17.675Z,2.3
2017-12-05T07:49:19.114Z,2.4
2017-12-05T07:50:20.512Z,2.4
2017-12-05T07:51:21.920Z,2.4
2017-12-05T07:52:23.339Z,2.4
2017-12-05T07:53:24.641Z,2.4
2017-12-05T07:54:26.221Z,2.4
2017-12-05T07:55:27.614Z,2.4
2017-12-05T07:56:28.946Z,2.4
2017-12-05T07:57:30.274Z,2.5
2017-12-05T07:58:33.583Z,2.5
2017-12-05T07:59:35.159Z,2.5
2017-12-05T08:00:36.538Z,2.6
2017-12-05T08:01:37.907Z,2.6
2017-12-05T08:02:39.224Z,2.6
2017-12-05T08:03:41.543Z,2.7
2017-12-05T08:04:43.170Z,3.1
2017-12-05T08:05:45.146Z,2.6
2017-12-05T08:06:46.452Z,2.6
2017-12-05T08:07:47.755Z,2.6
2017-12-05T08:08:50.442Z,2.6
2017-12-05T08:09:52.068Z,2.6
2017-12-05T08:10:53.388Z,2.6
2017-12-05T08:11:56.880Z,2.7
2017-12-05T08:12:58.115Z,2.6
2017-12-05T08:14:00.412Z,2.7
2017-12-05T08:15:01.872Z,2.7
2017-12-05T08:16:03.326Z,2.7
2017-12-05T08:17:04.703Z,2.7
2017-12-05T08:18:07.222Z,2.7
2017-12-05T08:19:10.646Z,2.8
2017-12-05T08:20:12.332Z,2.8
2017-12-05T08:21:14.320Z,2.7
2017-12-05T08:22:15.697Z,2.7
2017-12-05T08:23:17.846Z,2.7
2017-12-05T08:24:19.885Z,2.7
2017-12-05T08:25:21.327Z,2.6
2017-12-05T08:26:22.688Z,2.1
2017-12-05T08:27:24.000Z,2.7
2017-12-05T08:28:25.392Z,2.7
2017-12-05T08:29:28.677Z,2.7
2017-12-05T08:30:30.952Z,2.7
2017-12-05T08:31:32.348Z,2.8
2017-12-05T08:32:33.650Z,2.8
2017-12-05T08:33:35.030Z,2.8
2017-12-05T08:34:36.420Z,2.8
2017-12-05T08:35:37.767Z,2.8
2017-12-05T08:36:39.054Z,2.8
2017-12-05T08:37:41.454Z,2.8
2017-12-05T08:38:43.322Z,2.6
2017-12-05T08:39:46.155Z,2.5
2017-12-05T08:40:47.770Z,2.6
2017-12-05T08:41:49.115Z,2.6
2017-12-05T08:42:50.554Z,2.5
2017-12-05T08:43:52.409Z,2.5
2017-12-05T08:44:55.003Z,2.5
2017-12-05T08:45:57.051Z,2.9
2017-12-05T08:46:59.174Z,2.4
2017-12-05T08:48:00.561Z,2.7
2017-12-05T08:49:03.537Z,2.4
2017-12-05T08:50:07.397Z,2.4
2017-12-05T08:51:10.617Z,2.4
2017-12-05T08:52:13.100Z,2.5
2017-12-05T08:53:15.423Z,2.5
2017-12-05T08:54:16.835Z,2.5
2017-12-05T08:55:19.484Z,2.6
2017-12-05T08:56:21.641Z,2.5
2017-12-05T08:57:23.001Z,2.5
2017-12-05T08:58:25.124Z,2.5
2017-12-05T08:59:26.539Z,2.5
2017-12-05T09:00:29.951Z,2.4
2017-12-05T09:01:32.065Z,2.3
2017-12-05T09:02:34.188Z,2.4
2017-12-05T09:03:35.491Z,2.4
2017-12-05T09:04:36.856Z,1.8
2017-12-05T09:05:38.647Z,2.3
2017-12-05T09:06:41.464Z,2.4
2017-12-05T09:07:42.817Z,2.4
2017-12-05T09:08:44.846Z,2.3
2017-12-05T09:09:46.303Z,2.3
2017-12-05T09:10:49.127Z,2.4
2017-12-05T09:11:50.552Z,2.5
2017-12-05T09:12:51.970Z,2.6
2017-12-05T09:13:53.348Z,2.6
2017-12-05T09:14:54.791Z,2.7
2017-12-05T09:15:56.235Z,3.1
2017-12-05T09:16:57.487Z,2.8
2017-12-05T09:17:58.756Z,2.8
2017-12-05T09:19:01.089Z,2.8
2017-12-05T09:20:02.417Z,2.9
2017-12-05T09:21:05.208Z,3.3
2017-12-05T09:22:06.768Z,2.9
2017-12-05T09:23:08.115Z,2.9
2017-12-05T09:24:09.507Z,2.9
2017-12-05T09:25:10.870Z,3
2017-12-05T09:26:12.170Z,3
2017-12-05T09:27:14.491Z,3.1
2017-12-05T09:28:15.876Z,3.1
2017-12-05T09:29:17.198Z,3.1
2017-12-05T09:30:18.577Z,3.2
2017-12-05T09:31:21.487Z,3.2
2017-12-05T09:32:22.951Z,3.2
2017-12-05T09:33:24.293Z,3.2
2017-12-05T09:34:25.628Z,3.2
2017-12-05T09:35:27.040Z,3.2
2017-12-05T09:36:28.339Z,3.2
2017-12-05T09:37:29.638Z,3.2
2017-12-05T09:38:30.980Z,3.2
2017-12-05T09:39:32.292Z,3.2
2017-12-05T09:40:33.717Z,3.3
2017-12-05T09:41:37.016Z,3.3
2017-12-05T09:42:38.508Z,3.3
2017-12-05T09:43:40.659Z,3.3
2017-12-05T09:44:42.029Z,3.3
2017-12-05T09:45:43.914Z,3.3
2017-12-05T09:46:45.171Z,3.3
2017-12-05T09:47:46.815Z,3.3
2017-12-05T09:48:48.126Z,3.3
2017-12-05T09:49:49.553Z,3.3
2017-12-05T09:50:50.802Z,3.3
2017-12-05T09:51:54.832Z,3.3
2017-12-05T09:52:56.325Z,3.3
2017-12-05T09:53:57.667Z,3.3
2017-12-05T09:54:59.057Z,3.3
2017-12-05T09:56:00.447Z,3.4
2017-12-05T09:57:01.856Z,3.4
2017-12-05T09:58:03.398Z,3.4
2017-12-05T09:59:05.666Z,3.4
2017-12-05T10:00:08.027Z,3.4
2017-12-05T10:01:09.409Z,3.4
2017-12-05T10:02:12.137Z,3.9
2017-12-05T10:03:13.528Z,3.4
2017-12-05T10:04:14.724Z,3.4
2017-12-05T10:05:16.080Z,3.7
2017-12-05T10:06:17.414Z,3.8
2017-12-05T10:07:18.806Z,3.4
2017-12-05T10:08:20.183Z,3.4
2017-12-05T10:09:21.503Z,3.4
2017-12-05T10:10:23.504Z,3.4
2017-12-05T10:11:24.917Z,3.4
2017-12-05T10:12:27.585Z,3.4
2017-12-05T10:13:28.728Z,3.7
2017-12-05T10:14:30.123Z,3.5
2017-12-05T10:15:31.374Z,3.5
2017-12-05T10:16:32.657Z,3.5
2017-12-05T10:17:34.035Z,3.5
2017-12-05T10:18:35.337Z,3.5
2017-12-05T10:19:36.676Z,3.5
2017-12-05T10:20:38.060Z,3.5
2017-12-05T10:21:39.460Z,3.9
2017-12-05T10:22:42.106Z,3.4
2017-12-05T10:23:43.501Z,3.4
2017-12-05T10:24:44.962Z,3.5
2017-12-05T10:25:46.384Z,3.6
2017-12-05T10:26:47.721Z,3.6
2017-12-05T10:27:49.164Z,3.6
2017-12-05T10:28:51.087Z,3.6
2017-12-05T10:29:52.452Z,3.7
2017-12-05T10:30:53.770Z,3.7
2017-12-05T10:31:55.196Z,3.7
2017-12-05T10:32:58.399Z,3.7
2017-12-05T10:33:59.710Z,3.8
2017-12-05T10:35:01.045Z,3.8
2017-12-05T10:36:02.401Z,3.8
2017-12-05T10:37:03.732Z,3.8
2017-12-05T10:38:05.103Z,3.7
2017-12-05T10:39:06.418Z,3.8
2017-12-05T10:40:07.744Z,3.8
2017-12-05T10:41:09.084Z,3.8
2017-12-05T10:42:10.471Z,3.8
2017-12-05T10:43:13.280Z,3.8
2017-12-05T10:44:15.428Z,3.8
2017-12-05T10:45:16.857Z,3.8
2017-12-05T10:46:19.258Z,4.2
2017-12-05T10:47:20.672Z,3.8
2017-12-05T10:48:22.206Z,3.8
2017-12-05T10:49:23.608Z,3.9
2017-12-05T10:50:25.044Z,3.9
2017-12-05T10:51:26.383Z,3.8
2017-12-05T10:52:28.319Z,3.8
2017-12-05T10:53:31.083Z,3.8
2017-12-05T10:54:33.079Z,3.8
2017-12-05T10:55:34.420Z,3.9
2017-12-05T10:56:35.822Z,3.9
2017-12-05T10:57:37.200Z,3.9
2017-12-05T10:58:38.454Z,4
2017-12-05T10:59:39.875Z,3.9
2017-12-05T11:00:41.310Z,3.9
2017-12-05T11:01:42.688Z,3.9
2017-12-05T11:02:44.037Z,3.9
2017-12-05T11:03:46.737Z,3.9
2017-12-05T11:04:48.079Z,3.9
2017-12-05T11:05:49.399Z,3.9
2017-12-05T11:06:50.708Z,4.3
2017-12-05T11:07:52.088Z,3.9
2017-12-05T11:09:03.510Z,3.9
2017-12-05T11:10:04.847Z,3.9
2017-12-05T11:11:06.304Z,3.9
2017-12-05T11:12:07.641Z,4
2017-12-05T11:13:09.014Z,4
2017-12-05T11:14:12.779Z,4
2017-12-05T11:15:14.995Z,4
2017-12-05T11:16:16.407Z,3.8
2017-12-05T11:17:17.838Z,3.4
2017-12-05T11:18:19.250Z,3.3
2017-12-05T11:19:20.628Z,3.4
2017-12-05T11:20:22.065Z,3.5
2017-12-05T11:21:24.235Z,3.6
2017-12-05T11:22:26.306Z,3.6
2017-12-05T11:23:27.576Z,3.7
2017-12-05T11:24:31.231Z,3.7
2017-12-05T11:25:34.094Z,4.2
2017-12-05T11:26:35.871Z,3.8
2017-12-05T11:27:37.220Z,3.9
2017-12-05T11:28:38.508Z,3.9
2017-12-05T11:29:39.682Z,3.9
2017-12-05T11:30:41.645Z,4
2017-12-05T11:31:43.018Z,3.9
2017-12-05T11:32:44.882Z,3.9
2017-12-05T11:33:48.302Z,4
2017-12-05T11:34:52.480Z,4
2017-12-05T11:35:53.968Z,3.9
2017-12-05T11:36:55.378Z,3.9
2017-12-05T11:37:56.713Z,3.9
2017-12-05T11:38:58.028Z,3.9
2017-12-05T11:39:59.393Z,3.9
2017-12-05T11:41:00.696Z,3.9
2017-12-05T11:42:02.026Z,3.9
2017-12-05T11:43:03.357Z,3.9
2017-12-05T11:44:06.841Z,3.9
2017-12-05T11:45:09.592Z,3.4
2017-12-05T11:46:11.001Z,3.8
2017-12-05T11:47:13.090Z,3.9
2017-12-05T11:48:16.455Z,3.9
2017-12-05T11:49:17.942Z,3.9
2017-12-05T11:50:19.291Z,3.8
2017-12-05T11:51:21.135Z,3.9
2017-12-05T11:52:22.476Z,3.9
2017-12-05T11:53:25.115Z,3.9
2017-12-05T11:54:26.405Z,3.9
2017-12-05T11:55:29.317Z,3.9
2017-12-05T11:56:31.245Z,4
2017-12-05T11:57:32.648Z,4
2017-12-05T11:58:33.991Z,3.9
2017-12-05T11:59:35.964Z,3.9
2017-12-05T12:00:37.865Z,4
2017-12-05T12:01:39.259Z,4
2017-12-05T12:02:40.628Z,3.9
2017-12-05T12:03:42.071Z,3.9
2017-12-05T12:04:44.120Z,4
2017-12-05T12:05:46.835Z,3.9
2017-12-05T12:06:48.289Z,4
2017-12-05T12:07:49.679Z,4.3
2017-12-05T12:08:51.072Z,4
2017-12-05T12:09:52.856Z,3.9
2017-12-05T12:10:54.245Z,3.9
2017-12-05T12:11:56.013Z,4
2017-12-05T12:12:58.091Z,4
2017-12-05T12:13:59.521Z,4
2017-12-05T12:15:00.941Z,4
2017-12-05T12:16:03.682Z,4
2017-12-05T12:17:04.963Z,4
2017-12-05T12:18:06.325Z,4
2017-12-05T12:19:17.522Z,4.1
2017-12-05T12:20:18.903Z,4.2
2017-12-05T12:21:21.532Z,4.2
2017-12-05T12:22:22.974Z,4.3
2017-12-05T12:23:24.250Z,4.3
2017-12-05T12:24:25.598Z,4.3
2017-12-05T12:25:26.900Z,4.2
2017-12-05T12:26:29.557Z,4.2
2017-12-05T12:27:30.869Z,4.1
2017-12-05T12:28:32.216Z,4.1
2017-12-05T12:29:33.650Z,4.1
2017-12-05T12:30:35.040Z,4.1
2017-12-05T12:31:36.504Z,4.1
2017-12-05T12:32:38.018Z,4.1
2017-12-05T12:33:39.513Z,4.2
2017-12-05T12:34:40.785Z,4.1
2017-12-05T12:35:42.095Z,4.1
2017-12-05T12:36:44.915Z,4.1
2017-12-05T12:37:46.400Z,4.1
2017-12-05T12:38:47.714Z,4.4
2017-12-05T12:39:49.158Z,4.1
2017-12-05T12:40:50.487Z,4.1
2017-12-05T12:41:51.840Z,4.1
2017-12-05T12:42:53.218Z,4.1
2017-12-05T12:43:54.446Z,4.1
2017-12-05T12:44:55.818Z,4.1
2017-12-05T12:45:57.293Z,4.1
2017-12-05T12:47:01.212Z,4.1
2017-12-05T12:48:03.352Z,4
2017-12-05T12:49:04.600Z,4
2017-12-05T12:50:06.558Z,4.1
2017-12-05T12:51:07.916Z,4.1
2017-12-05T12:52:09.270Z,4
2017-12-05T12:53:10.846Z,4
2017-12-05T12:54:12.332Z,4
2017-12-05T12:55:13.627Z,4.2
2017-12-05T12:56:14.899Z,4
2017-12-05T12:57:18.214Z,4
2017-12-05T12:58:20.784Z,4
2017-12-05T12:59:22.095Z,4
2017-12-05T13:00:24.286Z,4
2017-12-05T13:01:25.681Z,4
2017-12-05T13:02:27.283Z,4
2017-12-05T13:03:28.645Z,3.9
2017-12-05T13:04:30.813Z,3.9
2017-12-05T13:05:32.269Z,3.9
2017-12-05T13:06:33.561Z,4
2017-12-05T13:07:36.357Z,4
2017-12-05T13:08:37.784Z,4
2017-12-05T13:09:39.725Z,4
2017-12-05T13:10:41.155Z,4
2017-12-05T13:11:42.321Z,4
2017-12-05T13:12:43.696Z,4
2017-12-05T13:13:45.797Z,4
2017-12-05T13:14:47.093Z,4
2017-12-05T13:15:48.554Z,4
2017-12-05T13:16:50.687Z,3.9
2017-12-05T13:17:54.621Z,3.9
2017-12-05T13:18:56.723Z,3.9
2017-12-05T13:19:59.068Z,4.2
2017-12-05T13:21:00.460Z,4
2017-12-05T13:22:01.921Z,3.9
2017-12-05T13:23:03.327Z,4.4
2017-12-05T13:24:04.746Z,4
2017-12-05T13:25:06.081Z,4
2017-12-05T13:26:07.987Z,3.9
2017-12-05T13:27:09.403Z,3.9
2017-12-05T13:28:12.118Z,4
2017-12-05T13:29:13.505Z,4
2017-12-05T13:30:14.829Z,4
2017-12-05T13:31:16.287Z,4
2017-12-05T13:32:17.617Z,4
2017-12-05T13:33:19.049Z,4
2017-12-05T13:34:20.468Z,4
2017-12-05T13:35:21.881Z,4
2017-12-05T13:36:23.230Z,4
2017-12-05T13:37:24.570Z,4
2017-12-05T13:38:27.348Z,4
2017-12-05T13:39:28.811Z,4
2017-12-05T13:40:30.173Z,4
2017-12-05T13:41:32.274Z,3.9
2017-12-05T13:42:33.646Z,3.9
2017-12-05T13:43:35.071Z,4
2017-12-05T13:44:36.541Z,4
2017-12-05T13:45:37.635Z,3.9
2017-12-05T13:46:39.014Z,3.9
2017-12-05T13:47:40.969Z,3.9
2017-12-05T13:48:44.279Z,3.9
2017-12-05T13:49:46.417Z,3.8
2017-12-05T13:50:47.810Z,3.8
2017-12-05T13:51:49.812Z,3.9
2017-12-05T13:52:51.159Z,3.9
2017-12-05T13:53:52.472Z,3.9
2017-12-05T13:54:53.889Z,3.9
2017-12-05T13:55:55.292Z,3.9
2017-12-05T13:56:58.717Z,3.9
2017-12-05T13:58:00.182Z,4.1
2017-12-05T13:59:03.036Z,3.9
2017-12-05T14:00:04.495Z,3.8
2017-12-05T14:01:05.888Z,3.7
2017-12-05T14:02:07.121Z,3.8
2017-12-05T14:03:08.201Z,3.8
2017-12-05T14:04:10.049Z,3.6
2017-12-05T14:05:11.304Z,3.8
2017-12-05T14:06:13.009Z,3.7
2017-12-05T14:07:15.016Z,3.7
2017-12-05T14:08:16.357Z,3.8
2017-12-05T14:09:19.043Z,3.7
2017-12-05T14:10:20.355Z,3.7
2017-12-05T14:11:22.732Z,3.6
2017-12-05T14:12:24.100Z,3.6
2017-12-05T14:13:25.438Z,3.6
2017-12-05T14:14:26.875Z,3.7
2017-12-05T14:15:28.234Z,3.7
2017-12-05T14:16:29.558Z,3.7
2017-12-05T14:17:30.890Z,3.7
2017-12-05T14:18:32.204Z,3.6
2017-12-05T14:19:34.882Z,3.7
2017-12-05T14:20:36.303Z,3.7
2017-12-05T14:21:37.619Z,3.7
2017-12-05T14:22:39.051Z,3.2
2017-12-05T14:23:40.427Z,3.7
2017-12-05T14:24:42.318Z,3.7
2017-12-05T14:25:43.975Z,3.7
2017-12-05T14:26:45.349Z,3.7
2017-12-05T14:27:46.795Z,3.7
2017-12-05T14:28:48.760Z,4.1
2017-12-05T14:29:51.503Z,3.7
2017-12-05T14:30:52.860Z,3.7
2017-12-05T14:31:54.173Z,3.7
2017-12-05T14:32:55.500Z,3.7
2017-12-05T14:33:56.868Z,3.7
2017-12-05T14:34:58.413Z,3.9
2017-12-05T14:35:59.758Z,3.7
2017-12-05T14:37:01.231Z,3.7
2017-12-05T14:38:02.702Z,3.7